Time;durP1;ratioP1;P1;durP2;ratioP2;P2;SDS_P1;SDS_P2;PMS_P1;PMS_P2;Temp;Humidity;BMP_temperature;BMP_pressure;BME280_temperature;BME280_humidity;BME280_pressure;Samples;Min_cycle;Max_cycle;Signal;HPM_P1;HPM_P2
2022/10/17 04:00:49;;;;;;;4.30;1.40;;;;;;;;;;5896072;22;20449;-81
2022/10/17 04:03:15;;;;;;;3.50;1.35;;;;;;;;;;5022558;28;20501;-81
2022/10/17 04:05:41;;;;;;;2.65;1.40;;;;;;;;;;5022881;28;20496;-81
2022/10/17 04:08:07;;;;;;;3.35;1.67;;;;;;;;;;5043000;28;20410;-81
2022/10/17 04:10:33;;;;;;;3.50;1.43;;;;;;;;;;5026621;28;20425;-81
2022/10/17 04:12:59;;;;;;;2.35;1.42;;;;;;;;;;5009759;28;20384;-81
2022/10/17 04:15:25;;;;;;;3.63;1.50;;;;;;;;;;5013074;28;20463;-81
2022/10/17 04:17:51;;;;;;;1.63;1.48;;;;;;;;;;5012905;28;20870;-81
2022/10/17 04:20:17;;;;;;;1.77;1.53;;;;;;;;;;5012643;28;20457;-81
2022/10/17 04:22:43;;;;;;;4.40;1.63;;;;;;;;;;5012932;28;20427;-81
2022/10/17 04:25:09;;;;;;;5.00;1.40;;;;;;;;;;5013125;28;20392;-81
2022/10/17 04:27:35;;;;;;;3.83;1.55;;;;;;;;;;5012848;28;20381;-81
2022/10/17 04:30:01;;;;;;;4.30;1.63;;;;;;;;;;5012884;28;20411;-80
2022/10/17 04:32:27;;;;;;;2.42;1.27;;;;;;;;;;5011552;28;20461;-81
2022/10/17 04:34:53;;;;;;;3.53;1.38;;;;;;;;;;5012941;28;20401;-81
2022/10/17 04:37:19;;;;;;;3.00;1.10;;;;;;;;;;5013181;28;20580;-81
2022/10/17 04:39:45;;;;;;;3.25;1.38;;;;;;;;;;5012883;28;20435;-81
2022/10/17 04:42:11;;;;;;;3.58;1.38;;;;;;;;;;5012917;28;20381;-81
2022/10/17 04:44:37;;;;;;;3.60;1.40;;;;;;;;;;5013290;28;20381;-81
2022/10/17 04:47:03;;;;;;;4.87;1.43;;;;;;;;;;5013299;28;20377;-81
2022/10/17 04:49:29;;;;;;;2.33;1.30;;;;;;;;;;5028396;28;20416;-81
2022/10/17 04:51:55;;;;;;;4.32;1.80;;;;;;;;;;5013155;28;20446;-81
2022/10/17 04:54:21;;;;;;;2.47;1.20;;;;;;;;;;5032534;28;20716;-81
2022/10/17 04:56:47;;;;;;;1.27;1.17;;;;;;;;;;5017653;28;20391;-81
2022/10/17 04:59:13;;;;;;;2.92;1.40;;;;;;;;;;5016469;28;20471;-81
2022/10/17 05:01:39;;;;;;;7.18;1.63;;;;;;;;;;5016885;28;20404;-81
2022/10/17 05:04:05;;;;;;;4.95;1.30;;;;;;;;;;5016478;28;20388;-80
2022/10/17 05:06:32;;;;;;;4.00;1.58;;;;;;;;;;5016491;28;20380;-81
2022/10/17 05:08:58;;;;;;;2.47;1.17;;;;;;;;;;5016451;28;20385;-81
2022/10/17 05:11:26;;;;;;;3.17;1.60;;;;;;;;;;5017367;28;20758;-81
2022/10/17 05:13:52;;;;;;;4.60;1.45;;;;;;;;;;5016547;28;20385;-81
2022/10/17 05:16:19;;;;;;;2.58;1.15;;;;;;;;;;5016462;28;20376;-81
2022/10/17 05:18:47;;;;;;;2.83;1.40;;;;;;;;;;5016466;28;20385;-80
2022/10/17 05:21:13;;;;;;;2.63;1.50;;;;;;;;;;5016180;28;20384;-81
2022/10/17 05:23:39;;;;;;;2.05;1.40;;;;;;;;;;5016289;28;20393;-81
2022/10/17 05:26:05;;;;;;;5.63;1.95;;;;;;;;;;5016133;28;20381;-81
2022/10/17 05:28:31;;;;;;;4.10;2.13;;;;;;;;;;5015857;28;20473;-82
2022/10/17 05:30:59;;;;;;;4.95;1.60;;;;;;;;;;5015720;28;20775;-81
2022/10/17 05:33:25;;;;;;;2.72;1.52;;;;;;;;;;5015485;28;20447;-81
2022/10/17 05:35:51;;;;;;;2.05;1.45;;;;;;;;;;5016299;28;20862;-81
2022/10/17 05:38:17;;;;;;;2.92;1.30;;;;;;;;;;5015990;28;20420;-81
2022/10/17 05:40:43;;;;;;;2.37;1.47;;;;;;;;;;5015961;28;20475;-81
2022/10/17 05:43:09;;;;;;;3.30;1.30;;;;;;;;;;5015486;28;20403;-81
2022/10/17 05:45:35;;;;;;;4.22;1.60;;;;;;;;;;5030889;28;20864;-81
2022/10/17 05:48:02;;;;;;;3.05;1.63;;;;;;;;;;5015629;28;20395;-81
2022/10/17 05:50:28;;;;;;;2.53;1.50;;;;;;;;;;5011720;28;20511;-81
2022/10/17 05:52:54;;;;;;;2.47;1.83;;;;;;;;;;5015701;28;20416;-81
2022/10/17 05:55:21;;;;;;;3.50;1.50;;;;;;;;;;5012820;28;20384;-82
2022/10/17 05:57:48;;;;;;;1.60;1.50;;;;;;;;;;5020929;28;20389;-82
2022/10/17 06:00:14;;;;;;;2.13;1.42;;;;;;;;;;5009210;28;20401;-82
2022/10/17 06:02:41;;;;;;;3.67;1.67;;;;;;;;;;5009176;28;20393;-82
2022/10/17 06:05:07;;;;;;;2.80;1.50;;;;;;;;;;5028639;28;20458;-82
2022/10/17 06:07:33;;;;;;;5.45;1.58;;;;;;;;;;5009363;28;20397;-82
2022/10/17 06:09:59;;;;;;;5.30;1.50;;;;;;;;;;4994925;28;20768;-81
2022/10/17 06:12:25;;;;;;;2.33;1.60;;;;;;;;;;4998395;28;20413;-81
2022/10/17 06:14:51;;;;;;;3.67;1.58;;;;;;;;;;4995119;28;20397;-82
2022/10/17 06:17:16;;;;;;;3.35;2.00;;;;;;;;;;4993991;28;20390;-82
2022/10/17 06:19:43;;;;;;;6.20;1.60;;;;;;;;;;5000258;28;20880;-81
2022/10/17 06:22:09;;;;;;;3.30;1.80;;;;;;;;;;4999047;28;20400;-81
2022/10/17 06:24:35;;;;;;;6.57;1.50;;;;;;;;;;4999743;28;20435;-81
2022/10/17 06:27:01;;;;;;;5.18;1.90;;;;;;;;;;5002216;28;20403;-81
2022/10/17 06:29:27;;;;;;;4.53;1.33;;;;;;;;;;4998953;28;20386;-81
2022/10/17 06:31:54;;;;;;;4.00;1.50;;;;;;;;;;5001412;28;20413;-81
2022/10/17 06:34:20;;;;;;;3.17;1.38;;;;;;;;;;5014130;28;20720;-82
2022/10/17 06:36:46;;;;;;;2.83;1.63;;;;;;;;;;5014037;28;20447;-81
2022/10/17 06:39:12;;;;;;;2.75;1.33;;;;;;;;;;5019327;28;20422;-82
2022/10/17 06:41:39;;;;;;;4.25;1.35;;;;;;;;;;5013867;28;20392;-81
2022/10/17 06:44:09;;;;;;;3.17;1.65;;;;;;;;;;5014679;28;20384;-81
2022/10/17 06:46:36;;;;;;;3.97;2.00;;;;;;;;;;5014252;28;20438;-82
2022/10/17 06:49:03;;;;;;;5.10;2.40;;;;;;;;;;5029055;28;20886;-82
2022/10/17 06:51:29;;;;;;;4.00;2.17;;;;;;;;;;5013203;28;20412;-81
2022/10/17 06:53:57;;;;;;;2.80;2.30;;;;;;;;;;5013733;28;20381;-81
2022/10/17 06:56:23;;;;;;;3.35;2.30;;;;;;;;;;5021259;28;20410;-82
2022/10/17 06:58:50;;;;;;;3.10;2.60;;;;;;;;;;5014741;28;20463;-82
2022/10/17 07:01:16;;;;;;;3.55;2.50;;;;;;;;;;5020991;28;20404;-81
2022/10/17 07:03:45;;;;;;;3.00;2.50;;;;;;;;;;5014465;28;20381;-81
2022/10/17 07:06:11;;;;;;;5.03;3.40;;;;;;;;;;5013492;28;20886;-81
2022/10/17 07:08:37;;;;;;;3.00;2.70;;;;;;;;;;5013811;28;20476;-81
2022/10/17 07:11:13;;;;;;;3.47;3.08;;;;;;;;;;5013325;28;20432;-81
2022/10/17 07:13:40;;;;;;;3.05;2.72;;;;;;;;;;5012496;28;20385;-82
2022/10/17 07:16:06;;;;;;;3.43;2.80;;;;;;;;;;5012383;28;20396;-81
2022/10/17 07:18:32;;;;;;;3.42;2.70;;;;;;;;;;5012867;28;20388;-81
2022/10/17 07:20:58;;;;;;;2.67;2.47;;;;;;;;;;5012245;28;20394;-81
2022/10/17 07:23:24;;;;;;;2.65;2.45;;;;;;;;;;5012913;28;20384;-81
2022/10/17 07:25:50;;;;;;;2.53;2.13;;;;;;;;;;5008803;28;20862;-82
2022/10/17 07:28:16;;;;;;;3.70;2.42;;;;;;;;;;5013070;28;20392;-83
2022/10/17 07:30:43;;;;;;;3.45;2.30;;;;;;;;;;5012903;28;20412;-82
2022/10/17 07:33:09;;;;;;;3.33;2.63;;;;;;;;;;5012924;28;20384;-83
2022/10/17 07:35:37;;;;;;;3.67;2.53;;;;;;;;;;5013105;28;20394;-83
2022/10/17 07:38:03;;;;;;;5.85;2.53;;;;;;;;;;5012625;28;20439;-82
2022/10/17 07:40:29;;;;;;;3.50;2.53;;;;;;;;;;5013179;28;20386;-83
2022/10/17 07:42:55;;;;;;;4.25;2.60;;;;;;;;;;5031949;28;20750;-83
2022/10/17 07:45:22;;;;;;;4.35;2.67;;;;;;;;;;5006199;28;20462;-81
2022/10/17 07:47:48;;;;;;;4.88;2.65;;;;;;;;;;4993647;28;20390;-82
2022/10/17 07:50:14;;;;;;;4.10;2.83;;;;;;;;;;4993510;28;20435;-82
2022/10/17 07:52:42;;;;;;;2.00;1.80;;;;;;;;;;5000994;28;20403;-82
2022/10/17 07:55:08;;;;;;;2.75;2.42;;;;;;;;;;4999375;28;20393;-84
2022/10/17 07:57:34;;;;;;;4.65;2.60;;;;;;;;;;4999552;28;20386;-82
2022/10/17 08:00:00;;;;;;;2.60;2.33;;;;;;;;;;5007415;28;20934;-82
2022/10/17 08:02:27;;;;;;;3.35;2.20;;;;;;;;;;5012159;28;20788;-82
2022/10/17 08:04:53;;;;;;;2.53;2.33;;;;;;;;;;5009648;28;20455;-83
2022/10/17 08:07:19;;;;;;;3.20;2.40;;;;;;;;;;5011867;28;20385;-83
2022/10/17 08:09:45;;;;;;;3.77;2.40;;;;;;;;;;4994177;28;20395;-83
2022/10/17 08:12:13;;;;;;;3.30;2.33;;;;;;;;;;4996520;28;20381;-83
2022/10/17 08:14:39;;;;;;;3.63;2.65;;;;;;;;;;5009202;28;20438;-83
2022/10/17 08:17:05;;;;;;;3.15;2.28;;;;;;;;;;5012425;28;20412;-82
2022/10/17 08:19:31;;;;;;;4.75;2.70;;;;;;;;;;5027820;28;20381;-84
2022/10/17 08:21:58;;;;;;;3.60;2.80;;;;;;;;;;5011125;28;20475;-84
2022/10/17 08:24:24;;;;;;;5.65;3.13;;;;;;;;;;5027185;28;20475;-84
2022/10/17 08:26:52;;;;;;;4.75;3.13;;;;;;;;;;5013821;28;20389;-84
2022/10/17 08:29:18;;;;;;;5.35;3.33;;;;;;;;;;5016314;28;20385;-84
2022/10/17 08:31:44;;;;;;;5.22;4.00;;;;;;;;;;5016217;28;20415;-84
2022/10/17 08:34:10;;;;;;;4.82;3.67;;;;;;;;;;5016382;28;20392;-85
2022/10/17 08:36:36;;;;;;;6.90;4.50;;;;;;;;;;5016223;28;20381;-84
2022/10/17 08:39:06;;;;;;;5.05;4.28;;;;;;;;;;5016244;28;20384;-84
2022/10/17 08:41:40;;;;;;;7.57;3.67;;;;;;;;;;5016072;28;20418;-85
2022/10/17 08:44:25;;;;;;;4.97;3.50;;;;;;;;;;5016097;28;20377;-84
2022/10/17 08:46:53;;;;;;;5.97;4.22;;;;;;;;;;5015960;28;20395;-84
2022/10/17 08:49:23;;;;;;;6.00;4.53;;;;;;;;;;5016057;28;20389;-85
2022/10/17 08:51:52;;;;;;;7.68;4.30;;;;;;;;;;5030994;28;20440;-84
2022/10/17 08:54:29;;;;;;;6.28;4.43;;;;;;;;;;5015999;28;20398;-84
2022/10/17 08:56:55;;;;;;;5.20;4.70;;;;;;;;;;5007192;28;20376;-84
2022/10/17 08:59:28;;;;;;;4.60;4.10;;;;;;;;;;5016115;28;20442;-84
2022/10/17 09:02:13;;;;;;;5.18;3.78;;;;;;;;;;5015494;28;20932;-85
2022/10/17 09:04:56;;;;;;;8.40;5.07;;;;;;;;;;5015799;28;20391;-85
2022/10/17 09:07:27;;;;;;;11.00;6.90;;;;;;;;;;5015057;28;20399;-84
2022/10/17 09:10:02;;;;;;;12.38;6.65;;;;;;;;;;5015644;28;20384;-85
2022/10/17 09:12:46;;;;;;;10.40;7.47;;;;;;;;;;5015448;28;20383;-85
2022/10/17 09:15:31;;;;;;;11.75;7.95;;;;;;;;;;5015683;28;20377;-84
2022/10/17 09:18:09;;;;;;;13.88;10.80;;;;;;;;;;5015419;28;20369;-85
2022/10/17 09:20:44;;;;;;;19.38;11.25;;;;;;;;;;5015449;28;20922;-84
2022/10/17 09:23:12;;;;;;;17.35;11.80;;;;;;;;;;5015389;28;20381;-84
2022/10/17 09:25:43;;;;;;;20.67;12.57;;;;;;;;;;5015458;28;20389;-84
2022/10/17 09:28:09;;;;;;;17.30;12.10;;;;;;;;;;5013287;28;20385;-84
2022/10/17 09:30:41;;;;;;;17.20;11.65;;;;;;;;;;5015291;28;20401;-84
2022/10/17 09:33:18;;;;;;;16.52;11.45;;;;;;;;;;5015244;28;20463;-84
2022/10/17 09:35:45;;;;;;;20.48;12.32;;;;;;;;;;5014931;28;20471;-84
2022/10/17 09:38:14;;;;;;;19.52;11.30;;;;;;;;;;5014394;28;20468;-85
2022/10/17 09:40:40;;;;;;;13.35;9.10;;;;;;;;;;5015114;28;20389;-84
2022/10/17 09:43:07;;;;;;;12.07;8.48;;;;;;;;;;5014926;28;20384;-84
2022/10/17 09:45:36;;;;;;;17.52;9.88;;;;;;;;;;5015032;28;20427;-84
2022/10/17 09:48:09;;;;;;;11.70;8.55;;;;;;;;;;5014876;28;20419;-84
2022/10/17 09:50:35;;;;;;;21.30;11.25;;;;;;;;;;5029923;28;20770;-84
2022/10/17 09:53:07;;;;;;;14.38;10.07;;;;;;;;;;5014898;28;20446;-85
2022/10/17 09:55:38;;;;;;;19.45;10.25;;;;;;;;;;5014239;28;20381;-85
2022/10/17 09:58:05;;;;;;;13.68;9.05;;;;;;;;;;5007914;28;20860;-85
2022/10/17 10:00:33;;;;;;;13.00;8.63;;;;;;;;;;5014709;28;20409;-85
2022/10/17 10:03:08;;;;;;;12.98;7.82;;;;;;;;;;5014734;28;20751;-85
2022/10/17 10:05:34;;;;;;;16.20;10.60;;;;;;;;;;5014329;28;20858;-87
2022/10/17 10:08:05;;;;;;;11.05;7.72;;;;;;;;;;5014529;28;20395;-87
2022/10/17 10:10:31;;;;;;;10.93;6.85;;;;;;;;;;5014302;28;20404;-86
2022/10/17 10:13:03;;;;;;;11.20;7.32;;;;;;;;;;5029634;28;20416;-86
2022/10/17 10:15:49;;;;;;;13.02;7.20;;;;;;;;;;5014424;28;20385;-87
2022/10/17 10:18:24;;;;;;;9.50;6.47;;;;;;;;;;4993527;28;20824;-86
2022/10/17 10:21:02;;;;;;;9.00;6.53;;;;;;;;;;4996479;28;20401;-88
2022/10/17 10:23:28;;;;;;;10.65;7.03;;;;;;;;;;5014243;28;20908;-87
2022/10/17 10:25:56;;;;;;;8.87;7.00;;;;;;;;;;5014167;28;20436;-87
2022/10/17 10:28:29;;;;;;;12.10;7.25;;;;;;;;;;5014363;28;20863;-86
2022/10/17 10:30:56;;;;;;;11.05;7.65;;;;;;;;;;5013961;28;20411;-86
2022/10/17 10:33:25;;;;;;;9.10;7.95;;;;;;;;;;5014037;28;20393;-87
2022/10/17 10:36:00;;;;;;;10.33;6.87;;;;;;;;;;5014061;28;20866;-87
2022/10/17 10:38:27;;;;;;;8.70;7.32;;;;;;;;;;5014053;28;20392;-86
2022/10/17 10:40:55;;;;;;;8.50;6.38;;;;;;;;;;5013799;28;20384;-85
2022/10/17 10:43:23;;;;;;;6.93;6.18;;;;;;;;;;5013879;28;20380;-85
2022/10/17 10:45:50;;;;;;;7.22;4.97;;;;;;;;;;5013876;28;20381;-86
2022/10/17 10:48:22;;;;;;;6.50;5.20;;;;;;;;;;5013709;28;20395;-85
2022/10/17 10:51:24;;;;;;;7.97;4.72;;;;;;;;;;5012496;28;20905;-85
2022/10/17 10:53:58;;;;;;;5.65;3.55;;;;;;;;;;5011587;28;20400;-87
2022/10/17 10:56:50;;;;;;;5.97;4.10;;;;;;;;;;5005813;28;20383;-87
2022/10/17 10:59:35;;;;;;;4.55;3.47;;;;;;;;;;5000168;28;20381;-86
2022/10/17 11:02:04;;;;;;;5.40;2.95;;;;;;;;;;5013364;28;20456;-87
2022/10/17 11:04:39;;;;;;;3.92;2.88;;;;;;;;;;5013796;28;20380;-87
2022/10/17 11:07:09;;;;;;;4.30;2.80;;;;;;;;;;5013335;28;20383;-88
2022/10/17 11:09:51;;;;;;;5.45;3.20;;;;;;;;;;5029026;28;20862;-87
2022/10/17 11:12:17;;;;;;;4.50;3.40;;;;;;;;;;5013891;28;20422;-85
2022/10/17 11:14:52;;;;;;;3.43;2.40;;;;;;;;;;5012973;28;20381;-85
2022/10/17 11:17:38;;;;;;;3.47;3.03;;;;;;;;;;5012659;28;20383;-86
2022/10/17 11:20:11;;;;;;;8.37;5.33;;;;;;;;;;5010677;28;20494;-85
2022/10/17 11:22:47;;;;;;;5.55;3.60;;;;;;;;;;5023869;28;20375;-85
2022/10/17 11:25:25;;;;;;;5.45;3.53;;;;;;;;;;5027363;28;20379;-84
2022/10/17 11:27:51;;;;;;;4.65;3.45;;;;;;;;;;5019625;28;20408;-85
2022/10/17 11:30:17;;;;;;;3.72;2.63;;;;;;;;;;5012077;28;20451;-84
2022/10/17 11:33:03;;;;;;;3.55;2.20;;;;;;;;;;5016105;28;20392;-85
2022/10/17 11:35:32;;;;;;;3.25;2.38;;;;;;;;;;5012358;28;20447;-84
2022/10/17 11:38:34;;;;;;;4.13;2.40;;;;;;;;;;5011494;28;20380;-85
2022/10/17 11:41:00;;;;;;;5.03;2.95;;;;;;;;;;4964290;28;20479;-85
2022/10/17 11:43:28;;;;;;;6.68;3.67;;;;;;;;;;4999933;28;20473;-84
2022/10/17 11:46:01;;;;;;;7.18;3.42;;;;;;;;;;5012751;28;20413;-85
2022/10/17 11:48:53;;;;;;;3.35;2.80;;;;;;;;;;5012671;28;20384;-84
2022/10/17 11:51:19;;;;;;;5.15;3.25;;;;;;;;;;5011237;28;20424;-84
2022/10/17 11:54:03;;;;;;;5.57;3.00;;;;;;;;;;5013296;28;20399;-84
2022/10/17 11:56:44;;;;;;;3.72;2.50;;;;;;;;;;5014352;28;20388;-84
2022/10/17 11:59:40;;;;;;;6.05;2.42;;;;;;;;;;5012807;28;20527;-84
2022/10/17 12:02:11;;;;;;;2.85;2.30;;;;;;;;;;5011485;28;20405;-84
2022/10/17 12:04:43;;;;;;;4.20;2.00;;;;;;;;;;5010296;28;20397;-84
2022/10/17 12:07:17;;;;;;;5.18;2.10;;;;;;;;;;5016329;28;20380;-83
2022/10/17 12:10:05;;;;;;;3.33;2.00;;;;;;;;;;5010971;28;20381;-83
2022/10/17 12:12:33;;;;;;;5.33;2.47;;;;;;;;;;5010509;28;21352;-84
2022/10/17 12:15:08;;;;;;;4.03;2.78;;;;;;;;;;5011878;28;20372;-84
2022/10/17 12:17:39;;;;;;;11.03;4.80;;;;;;;;;;5010204;28;20379;-84
2022/10/17 12:20:23;;;;;;;3.95;2.70;;;;;;;;;;4994223;28;20863;-84
2022/10/17 12:22:50;;;;;;;2.30;2.03;;;;;;;;;;4991375;28;20400;-85
2022/10/17 12:25:28;;;;;;;3.72;2.10;;;;;;;;;;4996147;28;20413;-84
2022/10/17 12:28:12;;;;;;;6.68;2.20;;;;;;;;;;5008027;28;20408;-84
2022/10/17 12:30:48;;;;;;;3.88;1.92;;;;;;;;;;5010553;28;20413;-84
2022/10/17 12:33:22;;;;;;;3.45;1.95;;;;;;;;;;5010960;28;20404;-84
2022/10/17 12:36:11;;;;;;;5.10;1.80;;;;;;;;;;5027656;28;20469;-83
2022/10/17 12:38:37;;;;;;;4.28;2.25;;;;;;;;;;5027944;28;20409;-84
2022/10/17 12:41:07;;;;;;;3.75;1.85;;;;;;;;;;5012171;28;20802;-84
2022/10/17 12:43:52;;;;;;;3.33;1.70;;;;;;;;;;5010207;28;20385;-85
2022/10/17 12:46:53;;;;;;;4.95;2.97;;;;;;;;;;5015172;28;20392;-84
2022/10/17 12:49:21;;;;;;;4.25;3.42;;;;;;;;;;4968868;28;20400;-85
2022/10/17 12:52:26;;;;;;;5.53;2.23;;;;;;;;;;4984620;28;20484;-85
2022/10/17 12:55:07;;;;;;;2.22;1.85;;;;;;;;;;5009079;28;20388;-85
2022/10/17 12:57:35;;;;;;;3.08;1.95;;;;;;;;;;5009413;28;20393;-85
2022/10/17 13:00:03;;;;;;;2.70;1.90;;;;;;;;;;5009495;28;20401;-85
2022/10/17 13:02:30;;;;;;;3.05;2.05;;;;;;;;;;5008931;28;20393;-85
2022/10/17 13:05:02;;;;;;;2.10;1.90;;;;;;;;;;5009193;28;20400;-84
2022/10/17 13:07:28;;;;;;;3.15;1.77;;;;;;;;;;4995773;28;20385;-85
2022/10/17 13:09:55;;;;;;;3.83;1.92;;;;;;;;;;5009274;28;20859;-85
2022/10/17 13:12:26;;;;;;;3.33;2.03;;;;;;;;;;5008900;28;20837;-84
2022/10/17 13:14:53;;;;;;;3.40;2.72;;;;;;;;;;4996672;28;20381;-84
2022/10/17 13:17:26;;;;;;;3.30;2.20;;;;;;;;;;5008081;28;20499;-84
2022/10/17 13:19:52;;;;;;;2.13;1.80;;;;;;;;;;5012513;28;20886;-84
2022/10/17 13:22:22;;;;;;;5.40;2.40;;;;;;;;;;5012822;28;20411;-83
2022/10/17 13:24:49;;;;;;;4.05;2.60;;;;;;;;;;5012679;28;20393;-83
2022/10/17 13:27:29;;;;;;;3.30;2.50;;;;;;;;;;5014404;28;20487;-83
2022/10/17 13:29:56;;;;;;;4.17;1.87;;;;;;;;;;5014667;28;20470;-84
2022/10/17 13:32:23;;;;;;;4.15;2.17;;;;;;;;;;5013962;28;20905;-84
2022/10/17 13:35:12;;;;;;;2.40;2.20;;;;;;;;;;5014993;28;20377;-84
2022/10/17 13:37:42;;;;;;;6.90;3.67;;;;;;;;;;5014265;28;20383;-83
2022/10/17 13:40:15;;;;;;;4.80;2.80;;;;;;;;;;5012605;28;20409;-83
2022/10/17 13:42:41;;;;;;;4.65;2.40;;;;;;;;;;5014005;28;20387;-83
2022/10/17 13:45:16;;;;;;;2.00;1.80;;;;;;;;;;5014283;28;20463;-83
2022/10/17 13:47:42;;;;;;;8.48;2.92;;;;;;;;;;5014242;28;20388;-83
2022/10/17 13:50:16;;;;;;;4.22;3.00;;;;;;;;;;5014066;28;20381;-83
2022/10/17 13:52:42;;;;;;;2.47;2.05;;;;;;;;;;5029130;28;20512;-83
2022/10/17 13:55:10;;;;;;;3.35;2.83;;;;;;;;;;5008456;28;20463;-84
2022/10/17 13:57:36;;;;;;;7.43;4.10;;;;;;;;;;5006450;28;20387;-84
2022/10/17 14:00:05;;;;;;;5.88;3.45;;;;;;;;;;5029338;28;20467;-84
2022/10/17 14:02:32;;;;;;;3.08;2.78;;;;;;;;;;5013765;28;20393;-84
2022/10/17 14:05:02;;;;;;;4.40;2.50;;;;;;;;;;5013829;28;20435;-84
2022/10/17 14:07:37;;;;;;;5.28;2.22;;;;;;;;;;5029038;28;20381;-84
2022/10/17 14:10:05;;;;;;;3.45;2.10;;;;;;;;;;5029010;28;20468;-84
2022/10/17 14:12:31;;;;;;;3.90;2.90;;;;;;;;;;5013234;28;20380;-84
2022/10/17 14:14:57;;;;;;;4.10;2.75;;;;;;;;;;5013669;28;20873;-84
2022/10/17 14:17:25;;;;;;;6.53;2.90;;;;;;;;;;5028829;28;20463;-83
2022/10/17 14:20:02;;;;;;;5.32;3.03;;;;;;;;;;5013488;28;20427;-84
2022/10/17 14:22:28;;;;;;;8.43;2.90;;;;;;;;;;5013742;28;20385;-84
2022/10/17 14:24:55;;;;;;;3.80;2.60;;;;;;;;;;5013317;28;20939;-84
2022/10/17 14:27:46;;;;;;;4.13;2.25;;;;;;;;;;5004703;28;20395;-84
2022/10/17 14:30:27;;;;;;;2.38;2.17;;;;;;;;;;5013030;28;20451;-84
2022/10/17 14:33:03;;;;;;;3.30;2.00;;;;;;;;;;5028470;28;20392;-85
2022/10/17 14:35:29;;;;;;;4.60;1.90;;;;;;;;;;5013715;28;20373;-84
2022/10/17 14:38:03;;;;;;;2.38;1.70;;;;;;;;;;5013137;28;20389;-84
2022/10/17 14:40:31;;;;;;;4.40;2.10;;;;;;;;;;5013182;28;20385;-84
2022/10/17 14:42:58;;;;;;;3.75;2.25;;;;;;;;;;5013151;28;20393;-84
2022/10/17 14:45:32;;;;;;;5.50;3.72;;;;;;;;;;5012850;28;20411;-84
2022/10/17 14:48:11;;;;;;;7.07;3.42;;;;;;;;;;5012951;28;20455;-81
2022/10/17 14:50:37;;;;;;;8.80;3.10;;;;;;;;;;5009926;28;20769;-83
2022/10/17 14:53:03;;;;;;;4.68;3.00;;;;;;;;;;5028002;28;20399;-82
2022/10/17 14:55:30;;;;;;;5.70;2.60;;;;;;;;;;5012791;28;20413;-81
2022/10/17 14:57:56;;;;;;;4.60;2.60;;;;;;;;;;5028195;28;20435;-81
2022/10/17 15:00:23;;;;;;;4.45;2.60;;;;;;;;;;5012826;28;20470;-81
2022/10/17 15:02:50;;;;;;;2.85;2.50;;;;;;;;;;5012871;28;20428;-81
2022/10/17 15:05:16;;;;;;;7.88;2.50;;;;;;;;;;5012605;28;20388;-81
2022/10/17 15:07:42;;;;;;;9.38;2.90;;;;;;;;;;5012577;28;21100;-81
2022/10/17 15:10:20;;;;;;;5.07;2.55;;;;;;;;;;5027483;28;20404;-81
2022/10/17 15:12:46;;;;;;;4.88;2.70;;;;;;;;;;5012484;28;20381;-81
2022/10/17 15:15:12;;;;;;;4.10;2.80;;;;;;;;;;5012016;28;20400;-81
2022/10/17 15:17:38;;;;;;;4.22;2.50;;;;;;;;;;5012593;28;20381;-81
2022/10/17 15:20:11;;;;;;;4.93;2.70;;;;;;;;;;5012300;28;20468;-81
2022/10/17 15:22:37;;;;;;;4.83;2.80;;;;;;;;;;5027788;28;20381;-81
2022/10/17 15:25:03;;;;;;;10.90;3.10;;;;;;;;;;5012989;28;20397;-81
2022/10/17 15:27:31;;;;;;;10.63;3.75;;;;;;;;;;5027495;28;20475;-81
2022/10/17 15:29:57;;;;;;;5.00;2.80;;;;;;;;;;5012189;28;20711;-81
2022/10/17 15:32:23;;;;;;;6.13;2.80;;;;;;;;;;5010597;28;20428;-81
2022/10/17 15:34:49;;;;;;;13.02;3.53;;;;;;;;;;5012283;28;20417;-81
2022/10/17 15:37:20;;;;;;;11.20;3.40;;;;;;;;;;5011410;28;20443;-81
2022/10/17 15:39:51;;;;;;;5.00;2.90;;;;;;;;;;5012034;28;20431;-81
2022/10/17 15:42:17;;;;;;;7.53;3.00;;;;;;;;;;5011930;28;20471;-81
2022/10/17 15:44:48;;;;;;;10.27;3.33;;;;;;;;;;5027735;28;20476;-81
2022/10/17 15:47:19;;;;;;;4.07;2.65;;;;;;;;;;5011682;28;20480;-81
2022/10/17 15:49:45;;;;;;;5.18;3.03;;;;;;;;;;5011830;28;20468;-81
2022/10/17 15:52:11;;;;;;;5.80;3.13;;;;;;;;;;5026882;28;20491;-81
2022/10/17 15:54:37;;;;;;;5.22;2.97;;;;;;;;;;5012185;28;20738;-81
2022/10/17 15:57:03;;;;;;;5.57;2.85;;;;;;;;;;5027036;28;20389;-81
2022/10/17 15:59:31;;;;;;;6.68;3.00;;;;;;;;;;5011788;28;20391;-81
2022/10/17 16:01:57;;;;;;;3.50;2.90;;;;;;;;;;5011643;28;20427;-81
2022/10/17 16:04:25;;;;;;;5.63;3.00;;;;;;;;;;5011940;28;20472;-81
2022/10/17 16:06:51;;;;;;;3.80;3.25;;;;;;;;;;5011680;28;20393;-81
2022/10/17 16:09:17;;;;;;;14.95;4.45;;;;;;;;;;5011958;28;20470;-81
2022/10/17 16:11:44;;;;;;;11.88;4.22;;;;;;;;;;5011457;28;20412;-82
2022/10/17 16:14:12;;;;;;;7.07;3.80;;;;;;;;;;5008560;28;20414;-82
2022/10/17 16:16:38;;;;;;;9.65;4.10;;;;;;;;;;4996421;28;20437;-84
2022/10/17 16:19:04;;;;;;;15.63;4.35;;;;;;;;;;5011689;28;20805;-85
2022/10/17 16:21:32;;;;;;;10.00;4.20;;;;;;;;;;5012682;28;20407;-85
2022/10/17 16:23:59;;;;;;;5.43;3.40;;;;;;;;;;5013303;28;20376;-85
2022/10/17 16:26:25;;;;;;;23.15;5.13;;;;;;;;;;5014787;28;20861;-85
2022/10/17 16:28:51;;;;;;;18.35;4.57;;;;;;;;;;5010390;28;20400;-84
2022/10/17 16:31:22;;;;;;;7.07;3.90;;;;;;;;;;5000946;28;20408;-83
2022/10/17 16:33:48;;;;;;;22.52;4.40;;;;;;;;;;5012340;28;20427;-84
2022/10/17 16:36:14;;;;;;;17.50;5.30;;;;;;;;;;5012418;28;20892;-86
2022/10/17 16:38:40;;;;;;;8.52;3.70;;;;;;;;;;5027369;28;20875;-86
2022/10/17 16:41:15;;;;;;;11.45;4.28;;;;;;;;;;5011928;28;20747;-86
2022/10/17 16:43:41;;;;;;;38.35;7.00;;;;;;;;;;5012436;28;20504;-86
2022/10/17 16:46:07;;;;;;;16.17;5.00;;;;;;;;;;5012263;28;20918;-83
2022/10/17 16:48:33;;;;;;;21.20;5.13;;;;;;;;;;5015010;28;20463;-83
2022/10/17 16:51:01;;;;;;;7.63;3.47;;;;;;;;;;5014888;28;20420;-86
2022/10/17 16:53:27;;;;;;;20.20;5.10;;;;;;;;;;5007791;28;20915;-85
2022/10/17 16:56:00;;;;;;;72.32;8.63;;;;;;;;;;5015181;28;20385;-85
2022/10/17 16:58:29;;;;;;;22.45;5.18;;;;;;;;;;5015467;28;20472;-86
2022/10/17 17:00:55;;;;;;;23.42;5.22;;;;;;;;;;5014373;28;20396;-85
2022/10/17 17:03:21;;;;;;;12.93;3.63;;;;;;;;;;5013711;28;20866;-84
2022/10/17 17:05:50;;;;;;;4.75;3.03;;;;;;;;;;5016244;28;20392;-83
2022/10/17 17:08:16;;;;;;;5.03;3.38;;;;;;;;;;5015305;28;20388;-83
2022/10/17 17:10:46;;;;;;;33.25;5.35;;;;;;;;;;5010608;28;21092;-83
2022/10/17 17:13:12;;;;;;;7.28;3.15;;;;;;;;;;5013485;28;20385;-84
2022/10/17 17:15:38;;;;;;;10.20;3.45;;;;;;;;;;5009933;28;20394;-84
2022/10/17 17:18:04;;;;;;;7.43;3.28;;;;;;;;;;5018153;28;20405;-85
2022/10/17 17:20:30;;;;;;;5.28;3.60;;;;;;;;;;5008256;28;20401;-84
2022/10/17 17:22:56;;;;;;;9.55;3.58;;;;;;;;;;5000742;28;20393;-83
2022/10/17 17:25:22;;;;;;;16.93;13.37;;;;;;;;;;5015455;28;20469;-83
2022/10/17 17:27:48;;;;;;;15.15;9.60;;;;;;;;;;5006842;28;20753;-82
2022/10/17 17:30:14;;;;;;;11.38;8.13;;;;;;;;;;5014596;28;20385;-83
2022/10/17 17:32:40;;;;;;;8.18;5.70;;;;;;;;;;5028994;28;20420;-83
2022/10/17 17:35:06;;;;;;;6.10;4.07;;;;;;;;;;5014408;28;20443;-83
2022/10/17 17:37:32;;;;;;;4.88;3.78;;;;;;;;;;5015075;28;20385;-83
2022/10/17 17:39:58;;;;;;;6.10;5.40;;;;;;;;;;5014999;28;20381;-83
2022/10/17 17:42:24;;;;;;;7.65;5.03;;;;;;;;;;5015157;28;20455;-83
2022/10/17 17:44:51;;;;;;;5.18;4.13;;;;;;;;;;5014914;28;20475;-84
2022/10/17 17:47:17;;;;;;;6.67;4.00;;;;;;;;;;5014997;28;20484;-82
2022/10/17 17:49:43;;;;;;;8.93;4.35;;;;;;;;;;5019780;28;20425;-82
2022/10/17 17:52:09;;;;;;;5.15;4.05;;;;;;;;;;5020056;28;20440;-82
2022/10/17 17:54:35;;;;;;;6.60;3.78;;;;;;;;;;5019307;28;20418;-82
2022/10/17 17:57:00;;;;;;;6.68;4.10;;;;;;;;;;5029412;28;20412;-82
2022/10/17 17:59:26;;;;;;;12.45;4.40;;;;;;;;;;5029466;28;20464;-82
2022/10/17 18:01:53;;;;;;;7.05;4.15;;;;;;;;;;5014490;28;20397;-82
2022/10/17 18:04:19;;;;;;;5.80;3.78;;;;;;;;;;5014806;28;20419;-82
2022/10/17 18:06:45;;;;;;;8.65;4.00;;;;;;;;;;5014557;28;20420;-81
2022/10/17 18:09:11;;;;;;;8.50;4.43;;;;;;;;;;5014655;28;20472;-82
2022/10/17 18:11:37;;;;;;;7.28;3.70;;;;;;;;;;5014296;28;20487;-81
2022/10/17 18:14:04;;;;;;;8.98;3.72;;;;;;;;;;5014163;28;20385;-82
2022/10/17 18:16:32;;;;;;;6.18;3.50;;;;;;;;;;5014478;28;20431;-82
2022/10/17 18:18:59;;;;;;;6.32;3.42;;;;;;;;;;5014399;28;20416;-82
2022/10/17 18:21:25;;;;;;;7.05;3.30;;;;;;;;;;5014093;28;20380;-82
2022/10/17 18:23:51;;;;;;;8.10;3.50;;;;;;;;;;5011003;28;20397;-82
2022/10/17 18:26:17;;;;;;;7.47;3.13;;;;;;;;;;5011785;28;20404;-82
2022/10/17 18:28:44;;;;;;;6.80;2.97;;;;;;;;;;5012477;28;20384;-83
2022/10/17 18:31:23;;;;;;;8.67;3.27;;;;;;;;;;5007535;28;20412;-83
2022/10/17 18:33:52;;;;;;;7.00;3.28;;;;;;;;;;4998428;28;20390;-84
2022/10/17 18:36:18;;;;;;;7.40;3.30;;;;;;;;;;4994974;28;20482;-84
2022/10/17 18:38:44;;;;;;;4.78;3.55;;;;;;;;;;4995684;28;20855;-84
2022/10/17 18:41:14;;;;;;;9.68;3.90;;;;;;;;;;5019285;28;20512;-83
2022/10/17 18:43:41;;;;;;;7.32;3.30;;;;;;;;;;5014083;28;20870;-83
2022/10/17 18:46:08;;;;;;;7.20;3.92;;;;;;;;;;5013705;28;20792;-84
2022/10/17 18:48:34;;;;;;;7.65;3.70;;;;;;;;;;5013875;28;20395;-84
2022/10/17 18:51:01;;;;;;;7.22;3.83;;;;;;;;;;5013617;28;20408;-84
2022/10/17 18:53:28;;;;;;;6.90;3.30;;;;;;;;;;5012088;28;20392;-84